Flight Track Log - Related Links

Times and Time Zones

All times are in EDT time to prevent confusion due to time zone crossing. See the ASQ5941 flight status page for this flight to view local times or setup timezone preferences in your user account.

Time Position Orientation Groundspeed Altitude Reporting Facility
EDT Latitude Longitude Course Direction KTS MPH feet Rate Location/Type
Sat 02:48:04 PM 42.0000 -87.9333 80° East 152 175 2,000  Level Chicago TRACON
Sat 02:49:04 PM 42.0333 -87.9000 37° Northeast 230 265 4,200 2,211 Climbing Chicago TRACON
Sat 02:49:58 PM 42.0500 -87.8167 75° East 259 298 6,200 2,034 Climbing Chicago TRACON
Sat 02:51:00 PM 42.0642 -87.2746 78° East  Level FlightAware Approximate
Sat 02:52:00 PM 42.0890 -87.1162 77° East  Level FlightAware Approximate
Sat 02:52:01 PM 42.0594 -87.6144 86° East 290 334 10,200  Level Chicago Center
Sat 02:53:00 PM 42.1055 -86.9565 80° East  Level FlightAware Approximate
Sat 02:53:03 PM 42.0700 -87.4969 83° East 310 357 12,200  Level Chicago Center
Sat 02:54:04 PM 42.0825 -87.3753 82° East 327 376 13,500 1,073 Climbing Chicago Center
Sat 02:55:06 PM 42.0983 -87.2089 83° East 372 428 14,400 968 Climbing Chicago Center
Sat 02:56:08 PM 42.1117 -87.0642 83° East 388 447 15,500 1,113 Climbing Chicago Center
Sat 02:57:10 PM 42.1169 -86.9106 87° East 408 470 16,700 1,171 Climbing Chicago Center
Sat 02:58:11 PM 42.1233 -86.7583 87° East 411 473 17,900 976 Climbing Chicago Center
Sat 02:59:13 PM 42.1283 -86.6039 87° East 418 481 18,700 871 Climbing Chicago Center
Sat 03:00:15 PM 42.1339 -86.4400 87° East 433 498 19,700 976 Climbing Chicago Center
Sat 03:01:16 PM 42.1394 -86.2717 87° East 447 514 20,700 1,122 Climbing Chicago Center
Sat 03:02:18 PM 42.1436 -86.0631 88° East 462 532 22,000 1,065 Climbing Chicago Center
Sat 03:03:20 PM 42.1419 -85.9033 91° East 465 535 22,900 1,024 Climbing Chicago Center
Sat 03:04:21 PM 42.1403 -85.7267 91° East 471 542 24,100 1,171 Climbing Chicago Center
Sat 03:05:23 PM 42.1386 -85.5514 91° East 471 542 25,300 1,306 Climbing Chicago Center
Sat 03:06:25 PM 42.1361 -85.3422 91° East 468 539 26,800 1,358 Climbing Chicago Center
Sat 03:07:09 PM 42.1375 -85.2153 89° East 476 548 27,700 1,212 Climbing Cleveland Center
Sat 03:08:09 PM 42.1358 -85.0469 91° East 458 527 28,900 1,150 Climbing Cleveland Center
Sat 03:09:09 PM 42.1281 -84.8644 93° East 466 536 30,000 1,100 Climbing Cleveland Center
Sat 03:10:09 PM 42.1278 -84.7019 90° East 460 529 31,100 1,050 Climbing Cleveland Center
Sat 03:11:09 PM 42.1258 -84.5253 91° East 460 529 32,100 1,000 Climbing Cleveland Center
Sat 03:12:09 PM 42.1347 -84.3858 85° East 465 535 33,100 1,150 Climbing Cleveland Center
Sat 03:13:09 PM 42.1514 -84.1853 84° East 460 529 34,400 950 Climbing Cleveland Center
Sat 03:14:09 PM 42.1714 -84.0097 81° East 468 539 35,000 300 Climbing Cleveland Center
Sat 03:15:09 PM 42.1908 -83.8456 81° East 474 545 35,000  Level Cleveland Center
Sat 03:16:09 PM 42.2083 -83.6642 83° East 481 554 35,000  Level Cleveland Center
Sat 03:17:09 PM 42.2264 -83.4517 83° East 499 574 35,000  Level Cleveland Center
Sat 03:18:09 PM 42.2289 -83.2611 89° East 507 583 35,000  Level Cleveland Center
Sat 03:19:09 PM 42.2328 -83.0931 88° East 507 583 35,000  Level Cleveland Center
Sat 03:20:09 PM 42.2325 -82.8994 90° East 507 583 35,000  Level Cleveland Center
Sat 03:21:09 PM 42.2319 -82.7117 90° East 507 583 35,000  Level Cleveland Center
Sat 03:22:09 PM 42.2333 -82.5181 89° East 507 583 35,000  Level Cleveland Center
Sat 03:23:09 PM 42.2322 -82.3247 90° East 507 583 35,000  Level Cleveland Center
Sat 03:24:09 PM 42.2331 -82.1311 90° East 512 589 35,000  Level Cleveland Center
Sat 03:25:09 PM 42.2311 -81.9403 91° East 512 589 35,000  Level Cleveland Center
Sat 03:26:09 PM 42.2311 -81.7525 90° East 507 583 35,000  Level Cleveland Center
Sat 03:27:09 PM 42.2289 -81.5506 91° East 494 568 35,000  Level Cleveland Center
Sat 03:28:09 PM 42.2283 -81.3711 90° East 489 563 35,000  Level Cleveland Center
Sat 03:29:09 PM 42.2272 -81.1803 90° East 496 571 35,000  Level Cleveland Center
Sat 03:30:09 PM 42.2261 -80.9925 90° East 496 571 35,000  Level Cleveland Center
Sat 03:31:09 PM 42.2203 -80.7961 92° East 502 578 35,000  Level Cleveland Center
Sat 03:32:09 PM 42.2206 -80.6000 90° East 515 593 35,000  Level Cleveland Center
Sat 03:33:09 PM 42.2058 -80.4094 96° East 515 593 35,000  Level Cleveland Center
Sat 03:34:09 PM 42.1844 -80.2414 100° East 515 593 35,000  Level Cleveland Center
Sat 03:35:09 PM 42.1631 -80.0508 99° East 515 593 35,000  Level Cleveland Center
Sat 03:36:09 PM 42.1392 -79.8664 100° East 510 587 35,000  Level Cleveland Center
Sat 03:37:09 PM 42.1147 -79.6764 100° East 510 587 35,000  Level Cleveland Center
Sat 03:38:09 PM 42.0903 -79.4947 100° East 504 580 35,000 -150 Level Cleveland Center
Sat 03:39:09 PM 42.0675 -79.3078 99° East 504 580 34,700 -650 Descending Cleveland Center
Sat 03:40:09 PM 42.0403 -79.1239 101° East 504 580 33,700 -1,100 Descending Cleveland Center
Sat 03:41:09 PM 42.0525 -78.9361 85° East 497 572 32,500 -1,750 Descending Cleveland Center
Sat 03:42:09 PM 42.0789 -78.7481 79° East 497 572 30,200 -2,450 Descending Cleveland Center
Sat 03:43:09 PM 42.0986 -78.5600 82° East 503 579 27,600 -2,050 Descending Cleveland Center
Sat 03:44:09 PM 42.0681 -78.3819 103° East 489 563 26,100 -1,300 Descending Cleveland Center
Sat 03:45:09 PM 42.0311 -78.1958 105° East 499 574 25,000 -550 Descending Cleveland Center
Sat 03:46:09 PM 41.9897 -78.0158 107° East 504 580 25,000 -611 Level Cleveland Center
Sat 03:47:46 PM 41.9239 -77.7261 107° East 490 564 23,400 -755 Descending New York Center
Sat 03:48:48 PM 41.8839 -77.5547 107° East 485 558 23,000 -197 Descending New York Center
Sat 03:49:48 PM 41.8439 -77.3778 107° East 485 558 23,000  Level New York Center
Sat 03:50:45 PM 41.8036 -77.1958 106° East 495 570 23,000  Level New York Center
Sat 03:51:47 PM 41.7578 -77.0050 108° East 495 570 23,000 -1,171 Level New York Center
Sat 03:52:48 PM 41.7181 -76.8428 108° East 488 562 20,600 -2,826 Descending New York Center
Sat 03:53:48 PM 41.6842 -76.6925 107° East 466 536 17,300 -3,378 Descending New York Center
Sat 03:54:47 PM 41.6481 -76.5367 107° East 450 518 13,900 -2,900 Descending New York Center
Sat 03:55:48 PM 41.6097 -76.3808 108° East 418 481 11,500 -1,736 Descending New York Center
Sat 03:56:48 PM 41.5803 -76.2536 107° East 375 432 10,400 -1,361 Descending New York Center
Sat 03:57:47 PM 41.5558 -76.1517 108° East 325 374 8,800 -1,613 Descending New York Center
Sat 03:58:47 PM 41.5181 -76.0600 119° Southeast 294 338 7,200 -1,700 Descending New York Center
Sat 03:59:47 PM 41.5064 -75.9483 98° East 274 315 5,400 -1,537 Descending New York Center
Sat 04:00:48 PM 41.4961 -75.8506 98° East 268 308 4,100 -645 Descending New York Center
Sat 04:01:48 PM 41.4836 -75.7528 100° East 263 303 4,100  Level New York Center

Login

Don't have an account? Register now (free) for customized features, flight alerts, and more!